Time;durP1;ratioP1;P1;durP2;ratioP2;P2;SDS_P1;SDS_P2;PMS_P1;PMS_P2;Temp;Humidity;BMP_temperature;BMP_pressure;BME280_temperature;BME280_humidity;BME280_pressure;Samples;Min_cycle;Max_cycle;Signal;HPM_P1;HPM_P2
2021/07/23 00:01:59;;;;;;;22.50;12.40;;;16.70;97.30;;;;;;5015762;28;20181;-85
2021/07/23 00:04:25;;;;;;;29.67;12.87;;;16.60;97.30;;;;;;5015296;28;21029;-87
2021/07/23 00:06:50;;;;;;;24.50;11.50;;;16.60;97.30;;;;;;5015281;28;20201;-85
2021/07/23 00:09:54;;;;;;;25.37;12.90;;;16.60;97.30;;;;;;5016352;28;20177;-85
2021/07/23 00:12:19;;;;;;;22.83;12.20;;;16.60;97.30;;;;;;5015098;28;20177;-85
2021/07/23 00:14:45;;;;;;;25.87;12.40;;;16.50;97.30;;;;;;5016444;28;20458;-85
2021/07/23 00:17:10;;;;;;;30.30;13.97;;;16.50;97.30;;;;;;5015208;28;20251;-85
2021/07/23 00:19:36;;;;;;;22.40;11.93;;;16.50;97.30;;;;;;5015348;28;20836;-84
2021/07/23 00:22:02;;;;;;;23.00;12.87;;;16.40;97.30;;;;;;5016581;28;20169;-84
2021/07/23 00:24:27;;;;;;;22.47;13.00;;;16.40;97.30;;;;;;5016349;28;20173;-85
2021/07/23 00:26:53;;;;;;;21.47;12.23;;;16.30;97.30;;;;;;5015930;28;20271;-85
2021/07/23 00:29:20;;;;;;;22.67;12.23;;;16.30;97.30;;;;;;5017258;28;20181;-85
2021/07/23 00:31:45;;;;;;;23.07;11.73;;;16.30;97.30;;;;;;5016100;28;20412;-85
2021/07/23 00:34:11;;;;;;;20.93;11.77;;;16.30;97.30;;;;;;5015148;28;20494;-83
2021/07/23 00:36:36;;;;;;;21.77;12.10;;;16.30;97.30;;;;;;5015334;28;20292;-86
2021/07/23 00:39:02;;;;;;;26.90;13.00;;;16.20;97.30;;;;;;5015128;28;20189;-88
2021/07/23 00:41:28;;;;;;;24.53;12.77;;;16.20;97.30;;;;;;5015279;28;20196;-85
2021/07/23 00:43:53;;;;;;;26.73;13.17;;;16.20;97.30;;;;;;5015107;28;20184;-85
2021/07/23 00:46:19;;;;;;;26.50;13.73;;;16.10;97.30;;;;;;5014101;28;20200;-86
2021/07/23 00:48:45;;;;;;;26.33;13.13;;;16.10;97.30;;;;;;5015289;28;20209;-85
2021/07/23 00:51:10;;;;;;;25.10;14.30;;;16.10;97.30;;;;;;5015361;28;20421;-85
2021/07/23 00:53:46;;;;;;;25.50;13.53;;;16.00;97.30;;;;;;5014754;28;20178;-84
2021/07/23 00:56:12;;;;;;;29.57;13.63;;;16.00;97.30;;;;;;5014257;28;20216;-85
2021/07/23 00:58:41;;;;;;;25.50;13.90;;;16.00;97.30;;;;;;5015063;28;20934;-87
2021/07/23 01:01:08;;;;;;;23.43;12.67;;;15.90;97.30;;;;;;5015361;28;20428;-86
2021/07/23 01:03:36;;;;;;;21.77;12.53;;;15.90;97.30;;;;;;5015987;28;20455;-84
2021/07/23 01:06:01;;;;;;;27.70;14.20;;;15.90;97.30;;;;;;5015604;28;20977;-84
2021/07/23 01:08:27;;;;;;;27.20;14.30;;;15.90;97.30;;;;;;5016574;28;20456;-87
2021/07/23 01:10:53;;;;;;;30.27;14.73;;;15.90;97.30;;;;;;5014527;28;20169;-84
2021/07/23 01:13:18;;;;;;;25.67;15.30;;;15.90;97.30;;;;;;5014723;28;20208;-85
2021/07/23 01:15:44;;;;;;;25.50;13.60;;;15.90;97.30;;;;;;5014105;28;20279;-86
2021/07/23 01:18:10;;;;;;;26.00;14.00;;;15.90;97.30;;;;;;5020771;28;20188;-83
2021/07/23 01:20:35;;;;;;;27.13;13.70;;;15.80;97.30;;;;;;5030771;28;20185;-85
2021/07/23 01:23:03;;;;;;;26.90;14.20;;;15.90;97.30;;;;;;5013177;28;20428;-85
2021/07/23 01:25:29;;;;;;;27.93;14.00;;;15.80;97.30;;;;;;5013414;28;20211;-85
2021/07/23 01:27:56;;;;;;;29.07;14.40;;;15.80;97.30;;;;;;5013599;28;20471;-87
2021/07/23 01:30:24;;;;;;;26.57;13.27;;;15.80;97.30;;;;;;5014930;28;20451;-84
2021/07/23 01:32:50;;;;;;;21.37;12.37;;;15.80;97.30;;;;;;5013509;28;20420;-85
2021/07/23 01:35:16;;;;;;;24.83;12.43;;;15.80;97.30;;;;;;5013933;28;20855;-85
2021/07/23 01:37:44;;;;;;;31.73;13.80;;;15.70;97.30;;;;;;5014461;28;20527;-85
2021/07/23 01:40:10;;;;;;;25.93;14.07;;;15.70;97.30;;;;;;5014913;28;20189;-84
2021/07/23 01:42:46;;;;;;;25.37;13.13;;;15.70;97.30;;;;;;5015146;28;20455;-87
2021/07/23 01:45:12;;;;;;;30.87;15.93;;;15.60;97.30;;;;;;5016427;28;20404;-85
2021/07/23 01:47:38;;;;;;;41.10;14.73;;;15.60;97.30;;;;;;5014526;28;20471;-84
2021/07/23 01:50:04;;;;;;;26.70;13.80;;;15.60;97.30;;;;;;5013353;28;20181;-85
2021/07/23 01:52:29;;;;;;;27.20;14.00;;;15.60;97.30;;;;;;5013106;28;20436;-84
2021/07/23 01:54:55;;;;;;;29.63;14.70;;;15.60;97.30;;;;;;5014587;28;20455;-84
2021/07/23 01:57:21;;;;;;;23.60;13.10;;;15.60;97.30;;;;;;5014701;28;20228;-85
2021/07/23 01:59:46;;;;;;;31.97;14.83;;;15.60;97.30;;;;;;5012991;28;20723;-84
2021/07/23 02:02:12;;;;;;;27.47;14.03;;;15.60;97.30;;;;;;5014236;28;20185;-83
2021/07/23 02:04:37;;;;;;;26.00;13.00;;;15.60;97.30;;;;;;5012770;28;20207;-84
2021/07/23 02:07:03;;;;;;;27.53;12.30;;;15.60;97.30;;;;;;5012566;28;20259;-85
2021/07/23 02:09:29;;;;;;;24.07;12.47;;;15.60;97.30;;;;;;5013300;28;20173;-85
2021/07/23 02:11:55;;;;;;;27.13;12.90;;;15.60;97.30;;;;;;5013004;28;20173;-85
2021/07/23 02:14:20;;;;;;;25.07;13.07;;;15.50;97.30;;;;;;5013928;28;20232;-85
2021/07/23 02:16:46;;;;;;;32.30;12.70;;;15.50;97.30;;;;;;5014629;28;20832;-85
2021/07/23 02:19:11;;;;;;;23.40;12.43;;;15.50;97.30;;;;;;5014311;28;20177;-84
2021/07/23 02:21:37;;;;;;;33.20;13.93;;;15.50;97.30;;;;;;5014153;28;20184;-84
2021/07/23 02:24:06;;;;;;;29.30;14.10;;;15.50;97.30;;;;;;5014363;28;20585;-84
2021/07/23 02:26:32;;;;;;;30.03;14.63;;;15.50;97.30;;;;;;5012731;28;20288;-84
2021/07/23 02:28:57;;;;;;;27.23;14.50;;;15.50;97.30;;;;;;5012984;28;20503;-85
2021/07/23 02:31:24;;;;;;;25.73;13.57;;;15.50;97.30;;;;;;5014134;28;20256;-85
2021/07/23 02:33:50;;;;;;;26.93;13.07;;;15.40;97.30;;;;;;5012466;28;20177;-84
2021/07/23 02:36:15;;;;;;;27.00;14.33;;;15.40;97.30;;;;;;5013659;28;20942;-85
2021/07/23 02:38:41;;;;;;;23.33;13.30;;;15.40;97.30;;;;;;5012795;28;20181;-84
2021/07/23 02:41:06;;;;;;;22.57;13.70;;;15.40;97.30;;;;;;5013867;28;20184;-84
2021/07/23 02:43:32;;;;;;;27.87;13.30;;;15.40;97.30;;;;;;5013076;28;20181;-85
2021/07/23 02:45:58;;;;;;;27.30;13.67;;;15.30;97.30;;;;;;5012509;28;20655;-85
2021/07/23 02:48:24;;;;;;;27.73;13.67;;;15.30;97.30;;;;;;5012619;28;20200;-84
2021/07/23 02:50:54;;;;;;;25.47;13.70;;;15.30;97.30;;;;;;5013409;28;20173;-84
2021/07/23 02:53:19;;;;;;;21.37;12.50;;;15.30;97.30;;;;;;5014473;28;20165;-83
2021/07/23 02:55:52;;;;;;;25.20;12.00;;;15.30;97.30;;;;;;5014116;28;20493;-83
2021/07/23 02:58:18;;;;;;;33.50;14.50;;;15.20;97.30;;;;;;5014415;28;20231;-84
2021/07/23 03:00:44;;;;;;;37.17;16.47;;;15.20;97.30;;;;;;5014307;28;20420;-84
2021/07/23 03:03:20;;;;;;;28.87;15.33;;;15.10;97.30;;;;;;5013796;28;20424;-85
2021/07/23 03:06:40;;;;;;;33.17;15.00;;;15.10;97.30;;;;;;5013406;28;20243;-85
2021/07/23 03:09:05;;;;;;;34.83;14.17;;;15.10;97.30;;;;;;5013189;28;20458;-84
2021/07/23 03:11:31;;;;;;;25.23;13.40;;;15.10;97.30;;;;;;5012788;28;20412;-84
2021/07/23 03:13:58;;;;;;;28.40;13.80;;;15.10;97.30;;;;;;5012793;28;20224;-84
2021/07/23 03:16:24;;;;;;;40.73;15.07;;;15.10;97.30;;;;;;5012388;28;20189;-83
2021/07/23 03:18:49;;;;;;;30.40;14.90;;;15.10;97.30;;;;;;5012336;28;20431;-84
2021/07/23 03:21:21;;;;;;;33.87;15.80;;;15.10;97.30;;;;;;5014174;28;20257;-84
2021/07/23 03:23:46;;;;;;;34.87;16.20;;;15.10;97.30;;;;;;5013965;28;20276;-84
2021/07/23 03:26:12;;;;;;;31.87;15.00;;;15.20;97.30;;;;;;5012553;28;20985;-84
2021/07/23 03:28:38;;;;;;;33.77;15.10;;;15.20;97.30;;;;;;5013637;28;20304;-85
2021/07/23 03:31:03;;;;;;;40.97;17.43;;;15.20;97.30;;;;;;5013940;28;20189;-86
2021/07/23 03:33:29;;;;;;;35.23;15.30;;;15.20;97.30;;;;;;5017901;28;20177;-83
2021/07/23 03:35:54;;;;;;;29.73;15.57;;;15.20;97.30;;;;;;5019302;28;20224;-84
2021/07/23 03:38:20;;;;;;;43.17;18.37;;;15.20;97.30;;;;;;5018053;28;20227;-86
2021/07/23 03:40:45;;;;;;;34.80;17.80;;;15.20;97.30;;;;;;5015723;28;20575;-84
2021/07/23 03:43:11;;;;;;;33.90;15.20;;;15.20;97.30;;;;;;5015539;28;20212;-84
2021/07/23 03:45:36;;;;;;;31.83;15.90;;;15.20;97.30;;;;;;5016108;28;20805;-85
2021/07/23 03:48:02;;;;;;;28.97;15.70;;;15.20;97.30;;;;;;5015880;28;20283;-84
2021/07/23 03:50:27;;;;;;;28.13;15.73;;;15.30;97.30;;;;;;5015439;28;20663;-84
2021/07/23 03:52:54;;;;;;;29.10;15.90;;;15.30;97.30;;;;;;5015563;28;20184;-88
2021/07/23 03:55:20;;;;;;;33.77;16.60;;;15.30;97.30;;;;;;5015918;28;20178;-84
2021/07/23 03:57:45;;;;;;;34.30;17.77;;;15.30;97.30;;;;;;5015435;28;20444;-87
2021/07/23 04:00:11;;;;;;;38.27;17.90;;;15.40;97.30;;;;;;5015685;28;20173;-84
2021/07/23 04:02:37;;;;;;;35.67;18.30;;;15.40;97.30;;;;;;5015662;28;20204;-84
2021/07/23 04:05:04;;;;;;;40.23;18.13;;;15.40;97.30;;;;;;5017913;28;20424;-84
2021/07/23 04:07:33;;;;;;;31.03;17.13;;;15.50;97.30;;;;;;5018439;28;20292;-84
2021/07/23 04:10:00;;;;;;;31.70;15.70;;;15.50;97.30;;;;;;5016805;28;20502;-84
2021/07/23 04:12:25;;;;;;;31.53;16.30;;;15.50;97.30;;;;;;5016193;28;20864;-84
2021/07/23 04:14:54;;;;;;;36.50;18.60;;;15.60;97.30;;;;;;5015646;28;20503;-84
2021/07/23 04:17:19;;;;;;;37.43;17.37;;;15.60;97.30;;;;;;5015561;28;20351;-84
2021/07/23 04:19:49;;;;;;;34.37;17.43;;;15.60;97.30;;;;;;5016948;28;20970;-84
2021/07/23 04:22:16;;;;;;;36.97;18.80;;;15.70;97.30;;;;;;5015472;28;20180;-88
2021/07/23 04:24:43;;;;;;;36.27;18.57;;;15.70;97.30;;;;;;5015773;28;20427;-83
2021/07/23 04:27:08;;;;;;;42.27;19.23;;;15.80;97.30;;;;;;5014899;28;20483;-83
2021/07/23 04:29:34;;;;;;;36.40;17.33;;;15.80;97.30;;;;;;5006438;28;20936;-85
2021/07/23 04:32:00;;;;;;;33.57;18.43;;;15.80;97.30;;;;;;5000437;28;20181;-86
2021/07/23 04:34:25;;;;;;;32.60;16.60;;;15.90;97.30;;;;;;5015639;28;20188;-83
2021/07/23 04:36:51;;;;;;;36.90;18.60;;;15.90;97.30;;;;;;5015020;28;20201;-83
2021/07/23 04:39:16;;;;;;;35.77;18.70;;;16.00;97.30;;;;;;5003826;28;20574;-87
2021/07/23 04:41:42;;;;;;;34.37;18.70;;;16.00;97.30;;;;;;5012186;28;20651;-85
2021/07/23 04:44:07;;;;;;;29.73;16.63;;;16.00;97.30;;;;;;5015882;28;20185;-84
2021/07/23 04:46:33;;;;;;;34.43;19.13;;;16.10;97.30;;;;;;5010660;28;20212;-85
2021/07/23 04:48:58;;;;;;;36.73;19.17;;;16.10;97.30;;;;;;5014248;28;20209;-85
2021/07/23 04:51:24;;;;;;;38.53;17.97;;;16.20;97.30;;;;;;5013411;28;20192;-83
2021/07/23 04:53:50;;;;;;;39.33;19.33;;;16.20;97.30;;;;;;5017315;28;20177;-81
2021/07/23 04:56:33;;;;;;;41.03;17.80;;;16.30;97.30;;;;;;5015658;28;20958;-84
2021/07/23 04:59:01;;;;;;;37.20;18.57;;;16.40;97.30;;;;;;5015554;28;20547;-84
2021/07/23 05:01:42;;;;;;;38.07;18.40;;;16.40;97.30;;;;;;5014505;28;20558;-84
2021/07/23 05:04:24;;;;;;;34.07;18.23;;;16.50;97.30;;;;;;5026377;28;20432;-85
2021/07/23 05:06:50;;;;;;;37.00;18.87;;;16.60;97.30;;;;;;5015437;28;20454;-85
2021/07/23 05:09:26;;;;;;;34.43;17.43;;;16.60;97.30;;;;;;5014877;28;20409;-84
2021/07/23 05:11:51;;;;;;;44.70;19.50;;;16.70;97.30;;;;;;5010117;28;20173;-85
2021/07/23 05:14:17;;;;;;;30.07;17.50;;;16.80;97.30;;;;;;5013996;28;20479;-85
2021/07/23 05:16:43;;;;;;;37.70;18.20;;;16.80;97.30;;;;;;5014186;28;20204;-88
2021/07/23 05:19:11;;;;;;;33.00;18.13;;;16.90;97.30;;;;;;5014220;28;20420;-85
2021/07/23 05:21:37;;;;;;;37.13;17.40;;;16.90;97.30;;;;;;5013803;28;20184;-86
2021/07/23 05:24:04;;;;;;;36.87;18.13;;;17.00;97.30;;;;;;5013985;28;20416;-85
2021/07/23 05:26:35;;;;;;;38.23;18.77;;;17.00;97.30;;;;;;5015266;28;20715;-86
2021/07/23 05:29:06;;;;;;;34.27;17.03;;;17.10;97.30;;;;;;5015493;28;20496;-85
2021/07/23 05:31:31;;;;;;;39.30;18.67;;;17.20;97.30;;;;;;5015805;28;20420;-87
2021/07/23 05:34:02;;;;;;;38.53;19.57;;;17.20;97.30;;;;;;5014625;28;20920;-84
2021/07/23 05:36:28;;;;;;;43.47;18.27;;;17.30;97.30;;;;;;5014374;28;20202;-84
2021/07/23 05:38:54;;;;;;;39.20;20.27;;;17.40;97.30;;;;;;4994239;28;20504;-85
2021/07/23 05:41:20;;;;;;;39.53;20.70;;;17.50;97.30;;;;;;5004429;28;20452;-84
2021/07/23 05:43:46;;;;;;;40.60;21.43;;;17.60;97.30;;;;;;5013487;28;20173;-86
2021/07/23 05:46:11;;;;;;;40.97;20.30;;;17.70;97.30;;;;;;5012828;28;20447;-85
2021/07/23 05:48:38;;;;;;;37.90;18.93;;;17.80;97.30;;;;;;5017055;28;20553;-86
2021/07/23 05:51:06;;;;;;;37.00;18.57;;;17.90;97.30;;;;;;5021194;28;20201;-84
2021/07/23 05:53:32;;;;;;;45.10;19.30;;;18.00;97.30;;;;;;5013080;28;20416;-84
2021/07/23 05:55:58;;;;;;;44.20;19.00;;;18.10;97.30;;;;;;5013173;28;20985;-87
2021/07/23 05:58:25;;;;;;;39.03;19.80;;;18.10;97.30;;;;;;5014017;28;20610;-84
2021/07/23 06:00:51;;;;;;;40.20;20.73;;;18.20;97.30;;;;;;5014242;28;20434;-84
2021/07/23 06:03:16;;;;;;;41.30;19.67;;;18.30;97.30;;;;;;5013591;28;20503;-85
2021/07/23 06:05:42;;;;;;;42.30;20.20;;;18.30;97.30;;;;;;5015542;28;20174;-88
2021/07/23 06:08:15;;;;;;;32.67;18.57;;;18.40;97.30;;;;;;5014848;28;20224;-85
2021/07/23 06:10:53;;;;;;;37.23;18.80;;;18.40;97.30;;;;;;5011823;28;20182;-85
2021/07/23 06:13:24;;;;;;;48.93;18.23;;;18.40;97.30;;;;;;5007599;28;20918;-86
2021/07/23 06:15:50;;;;;;;40.03;19.73;;;18.50;97.30;;;;;;5014867;23;20483;-83
2021/07/23 06:18:16;;;;;;;37.43;18.70;;;18.50;97.30;;;;;;5014794;28;20421;-83
2021/07/23 06:20:41;;;;;;;34.57;17.67;;;18.50;97.30;;;;;;5014811;28;20207;-83
2021/07/23 06:23:07;;;;;;;40.80;19.37;;;18.60;97.30;;;;;;5016040;28;20187;-83
2021/07/23 06:25:33;;;;;;;40.63;20.07;;;18.60;97.30;;;;;;5014619;28;20694;-83
2021/07/23 06:27:58;;;;;;;39.33;19.13;;;18.60;97.30;;;;;;5014338;28;20671;-83
2021/07/23 06:30:24;;;;;;;43.70;21.50;;;18.60;97.30;;;;;;5014719;28;20428;-83
2021/07/23 06:32:49;;;;;;;42.30;21.00;;;18.70;97.30;;;;;;5016340;28;20192;-83
2021/07/23 06:35:15;;;;;;;35.23;19.90;;;18.70;97.30;;;;;;5014785;28;20204;-83
2021/07/23 06:37:40;;;;;;;38.90;19.33;;;18.70;97.30;;;;;;5014503;28;20213;-83
2021/07/23 06:40:06;;;;;;;38.27;20.73;;;18.70;97.30;;;;;;5013628;28;20191;-83
2021/07/23 06:42:34;;;;;;;46.63;19.60;;;18.70;97.30;;;;;;5014548;28;20201;-82
2021/07/23 06:45:00;;;;;;;37.53;18.33;;;18.70;97.30;;;;;;5014627;28;20495;-83
2021/07/23 06:47:25;;;;;;;38.83;19.10;;;18.70;97.30;;;;;;5014380;28;20474;-83
2021/07/23 06:49:52;;;;;;;36.07;20.57;;;18.70;97.30;;;;;;5014607;28;20183;-83
2021/07/23 06:52:19;;;;;;;38.97;20.00;;;18.70;97.30;;;;;;5014221;28;20694;-83
2021/07/23 06:54:44;;;;;;;46.10;19.97;;;18.70;97.30;;;;;;5014743;28;20418;-83
2021/07/23 06:57:10;;;;;;;37.70;19.27;;;18.70;97.30;;;;;;5014108;28;20510;-83
2021/07/23 06:59:35;;;;;;;38.73;19.57;;;18.70;97.30;;;;;;5014024;28;20239;-83
2021/07/23 07:02:02;;;;;;;40.63;19.70;;;18.70;97.30;;;;;;5016091;28;20208;-83
2021/07/23 07:04:28;;;;;;;37.53;19.33;;;18.70;97.30;;;;;;5014923;28;20275;-83
2021/07/23 07:06:57;;;;;;;42.10;19.80;;;18.70;97.30;;;;;;5015553;28;20431;-83
2021/07/23 07:09:24;;;;;;;37.83;20.20;;;18.70;97.30;;;;;;5018017;28;20412;-83
2021/07/23 07:11:50;;;;;;;38.20;20.13;;;18.80;97.30;;;;;;5017871;28;20458;-83
2021/07/23 07:14:16;;;;;;;40.10;20.07;;;18.80;97.30;;;;;;5018165;28;20431;-82
2021/07/23 07:16:42;;;;;;;41.53;21.83;;;18.80;97.30;;;;;;5018612;28;20479;-83
2021/07/23 07:19:07;;;;;;;44.23;21.60;;;18.80;97.30;;;;;;5017868;28;20173;-83
2021/07/23 07:21:33;;;;;;;41.97;20.90;;;18.90;97.30;;;;;;5017065;28;20259;-83
2021/07/23 07:24:00;;;;;;;35.80;19.77;;;18.80;97.30;;;;;;5017757;28;20173;-83
2021/07/23 07:26:27;;;;;;;40.50;21.37;;;18.90;97.30;;;;;;5017924;28;20717;-83
2021/07/23 07:28:53;;;;;;;42.50;18.10;;;18.90;97.30;;;;;;5019479;28;20815;-83
2021/07/23 07:31:18;;;;;;;38.20;20.47;;;19.00;97.30;;;;;;5017130;28;20443;-84
2021/07/23 07:33:44;;;;;;;37.10;19.60;;;19.00;97.30;;;;;;5019540;28;20173;-82
2021/07/23 07:36:11;;;;;;;33.67;17.97;;;19.10;97.30;;;;;;5019338;28;20181;-83
2021/07/23 07:38:37;;;;;;;38.40;20.80;;;19.10;97.30;;;;;;5017712;28;20263;-83
2021/07/23 07:41:03;;;;;;;39.30;20.73;;;19.20;97.30;;;;;;5018127;28;21030;-83
2021/07/23 07:43:28;;;;;;;42.30;19.07;;;19.30;97.30;;;;;;5018976;28;20245;-84
2021/07/23 07:45:55;;;;;;;38.97;19.30;;;19.30;97.30;;;;;;5016724;28;20412;-89
2021/07/23 07:48:21;;;;;;;36.93;19.70;;;19.30;97.30;;;;;;5017196;28;20259;-88
2021/07/23 07:50:47;;;;;;;37.40;19.63;;;19.30;97.30;;;;;;5015530;28;20440;-88
2021/07/23 07:53:13;;;;;;;39.93;20.47;;;19.40;97.30;;;;;;5016748;28;20451;-88
2021/07/23 07:55:39;;;;;;;36.80;19.43;;;19.50;97.30;;;;;;5017888;28;20843;-88
2021/07/23 07:58:04;;;;;;;35.03;18.40;;;19.50;97.30;;;;;;5016665;28;20181;-88
2021/07/23 08:00:30;;;;;;;38.07;18.87;;;19.60;97.30;;;;;;5015430;28;20701;-88
2021/07/23 08:02:56;;;;;;;40.93;18.73;;;19.60;97.30;;;;;;5008764;28;20173;-88
2021/07/23 08:05:21;;;;;;;37.90;19.17;;;19.70;97.30;;;;;;5012133;28;20425;-89
2021/07/23 08:07:48;;;;;;;36.43;18.80;;;19.80;97.30;;;;;;4999673;28;20493;-88
2021/07/23 08:10:15;;;;;;;40.27;18.10;;;19.90;97.30;;;;;;5011050;28;20264;-88
2021/07/23 08:12:41;;;;;;;34.53;18.80;;;20.00;97.30;;;;;;5016188;28;20495;-88
2021/07/23 08:15:07;;;;;;;33.93;18.13;;;20.10;97.30;;;;;;5016339;28;20777;-88
2021/07/23 08:17:33;;;;;;;33.83;18.20;;;20.20;97.30;;;;;;5015521;28;20526;-87
2021/07/23 08:20:02;;;;;;;34.23;17.87;;;20.20;97.30;;;;;;5015368;28;20479;-87
2021/07/23 08:22:34;;;;;;;36.80;18.07;;;20.30;97.30;;;;;;5014962;28;20201;-87
2021/07/23 08:24:59;;;;;;;34.80;16.50;;;20.40;97.30;;;;;;5014831;28;20427;-88
2021/07/23 08:27:25;;;;;;;41.87;18.30;;;20.40;97.30;;;;;;5014162;28;20582;-87
2021/07/23 08:29:50;;;;;;;39.53;20.30;;;20.50;97.30;;;;;;5014264;28;20173;-86
2021/07/23 08:32:16;;;;;;;33.97;18.43;;;20.50;97.30;;;;;;5014452;28;20696;-87
2021/07/23 08:34:42;;;;;;;31.03;16.80;;;20.60;97.30;;;;;;5015216;28;20173;-87
2021/07/23 08:37:08;;;;;;;30.63;17.07;;;20.70;97.30;;;;;;5014755;28;20186;-88
2021/07/23 08:39:34;;;;;;;31.90;17.33;;;20.80;97.30;;;;;;5015972;28;20189;-87
2021/07/23 08:42:27;;;;;;;30.03;16.00;;;20.90;97.30;;;;;;5014165;28;20440;-87
2021/07/23 08:44:54;;;;;;;30.87;17.30;;;21.10;97.30;;;;;;5015934;28;20546;-87
2021/07/23 08:47:20;;;;;;;39.57;17.60;;;21.20;97.30;;;;;;5015690;28;20468;-86
2021/07/23 08:49:46;;;;;;;31.27;18.30;;;21.20;97.30;;;;;;5014832;28;20420;-87
2021/07/23 08:52:12;;;;;;;31.23;16.47;;;21.30;97.30;;;;;;5014412;28;20883;-87
2021/07/23 08:54:38;;;;;;;29.70;16.43;;;21.40;97.30;;;;;;5014502;28;20613;-88
2021/07/23 08:57:07;;;;;;;33.50;17.60;;;21.50;97.30;;;;;;5014606;28;20479;-87
2021/07/23 08:59:33;;;;;;;24.83;15.47;;;21.60;97.30;;;;;;5014482;28;20451;-87
2021/07/23 09:02:00;;;;;;;37.30;16.70;;;21.70;97.30;;;;;;5015384;28;20439;-87
2021/07/23 09:04:27;;;;;;;29.20;15.90;;;21.80;97.30;;;;;;4998494;28;20185;-87
2021/07/23 09:07:14;;;;;;;29.77;16.87;;;21.80;97.30;;;;;;5013603;28;21013;-87
2021/07/23 09:09:52;;;;;;;30.53;15.83;;;21.90;97.30;;;;;;5013757;28;20926;-88
2021/07/23 09:12:18;;;;;;;30.30;16.13;;;22.00;97.30;;;;;;5014390;28;20431;-87
2021/07/23 09:14:43;;;;;;;32.37;17.60;;;22.10;97.30;;;;;;5014517;28;20412;-87
2021/07/23 09:17:09;;;;;;;31.90;17.60;;;22.20;97.30;;;;;;5013920;28;20225;-87
2021/07/23 09:19:37;;;;;;;26.03;15.03;;;22.30;96.80;;;;;;5014275;28;20250;-88
2021/07/23 09:22:05;;;;;;;26.43;16.00;;;22.30;96.20;;;;;;5014214;28;20697;-87
2021/07/23 09:24:49;;;;;;;32.17;16.27;;;22.40;96.30;;;;;;5014247;28;20983;-87
2021/07/23 09:27:34;;;;;;;24.73;14.83;;;22.40;94.70;;;;;;5013705;28;20601;-88
2021/07/23 09:30:01;;;;;;;29.30;16.20;;;22.40;95.50;;;;;;5014326;28;20416;-88
2021/07/23 09:32:28;;;;;;;34.33;15.37;;;22.50;95.20;;;;;;5013554;28;20904;-88
2021/07/23 09:35:11;;;;;;;28.90;16.30;;;22.50;94.20;;;;;;5015421;28;20937;-87
2021/07/23 09:37:55;;;;;;;30.00;15.70;;;22.60;95.10;;;;;;5015217;28;20772;-89
2021/07/23 09:40:22;;;;;;;27.50;14.97;;;22.60;95.30;;;;;;5015224;28;20415;-88
2021/07/23 09:42:56;;;;;;;29.87;15.60;;;22.70;94.40;;;;;;5014714;28;20494;-88
2021/07/23 09:45:32;;;;;;;24.83;14.07;;;22.80;94.40;;;;;;5015586;28;20457;-88
2021/07/23 09:48:11;;;;;;;27.80;14.97;;;22.90;94.80;;;;;;5018205;28;20444;-88
2021/07/23 09:50:43;;;;;;;26.10;14.80;;;23.00;95.10;;;;;;5018002;28;20428;-87
2021/07/23 09:53:14;;;;;;;26.30;15.03;;;23.00;93.40;;;;;;4998093;28;20413;-88
2021/07/23 09:55:43;;;;;;;25.57;14.23;;;23.10;93.60;;;;;;4996430;28;20818;-87
2021/07/23 09:58:11;;;;;;;23.93;13.90;;;23.10;91.60;;;;;;4998722;28;20417;-87
2021/07/23 10:00:39;;;;;;;26.33;14.43;;;23.10;93.40;;;;;;4997378;28;20409;-87
2021/07/23 10:03:07;;;;;;;25.33;13.53;;;23.20;91.00;;;;;;4998145;28;20425;-87
2021/07/23 10:05:38;;;;;;;25.27;13.70;;;23.30;90.90;;;;;;5013761;28;20428;-88
2021/07/23 10:08:11;;;;;;;21.77;12.40;;;23.40;91.50;;;;;;5015838;28;20458;-87
2021/07/23 10:10:43;;;;;;;20.50;13.30;;;23.50;89.30;;;;;;5015405;28;20412;-88
2021/07/23 10:13:09;;;;;;;25.37;13.73;;;23.60;88.80;;;;;;5015494;28;20412;-88
2021/07/23 10:15:37;;;;;;;27.67;13.40;;;23.60;90.60;;;;;;5023757;28;20443;-89
2021/07/23 10:18:04;;;;;;;20.17;12.27;;;23.60;91.60;;;;;;5018853;28;20507;-81
2021/07/23 10:20:30;;;;;;;24.03;12.00;;;23.80;90.40;;;;;;4997994;28;20421;-81
2021/07/23 10:22:56;;;;;;;19.10;12.00;;;23.80;91.10;;;;;;5000411;28;20420;-81
2021/07/23 10:25:23;;;;;;;18.20;12.03;;;24.00;92.30;;;;;;5004200;28;20425;-81
2021/07/23 10:27:49;;;;;;;25.43;12.83;;;24.10;93.50;;;;;;5016987;28;20479;-82
2021/07/23 10:30:32;;;;;;;19.80;12.20;;;24.30;94.80;;;;;;5017047;28;20412;-82
2021/07/23 10:32:58;;;;;;;17.10;12.20;;;24.30;90.50;;;;;;5016789;28;20638;-81
2021/07/23 10:35:29;;;;;;;20.37;12.17;;;24.30;89.50;;;;;;5017499;28;20447;-83
2021/07/23 10:37:55;;;;;;;19.50;12.67;;;24.20;89.10;;;;;;5007403;28;20188;-82
2021/07/23 10:40:31;;;;;;;22.10;12.80;;;24.20;89.00;;;;;;5005185;28;20427;-81
2021/07/23 10:42:57;;;;;;;23.40;11.70;;;24.20;89.40;;;;;;5013877;28;20439;-82
2021/07/23 10:45:47;;;;;;;22.53;12.77;;;24.30;89.50;;;;;;5007788;28;20480;-82
2021/07/23 10:48:43;;;;;;;21.43;12.30;;;24.50;87.80;;;;;;5015955;28;20463;-82
2021/07/23 10:51:09;;;;;;;22.20;12.30;;;24.60;87.60;;;;;;5016864;28;20894;-82
2021/07/23 10:53:35;;;;;;;18.03;12.30;;;24.70;88.10;;;;;;5016436;28;20459;-82
2021/07/23 10:56:01;;;;;;;21.10;12.60;;;24.80;88.60;;;;;;5015593;28;20231;-82
2021/07/23 10:58:26;;;;;;;20.87;12.33;;;24.90;87.90;;;;;;5015485;28;20427;-82
2021/07/23 11:01:02;;;;;;;21.83;12.50;;;24.80;86.60;;;;;;5016294;28;20516;-82
2021/07/23 11:03:37;;;;;;;21.80;12.83;;;24.70;87.00;;;;;;5016247;28;20191;-82
2021/07/23 11:06:21;;;;;;;19.90;12.30;;;24.70;86.60;;;;;;5017308;28;20423;-82
2021/07/23 11:08:54;;;;;;;20.93;12.03;;;24.60;86.60;;;;;;5016124;28;20463;-82
2021/07/23 11:11:26;;;;;;;21.27;12.87;;;24.60;86.90;;;;;;5016383;28;20468;-82
2021/07/23 11:13:51;;;;;;;20.27;12.30;;;24.50;87.80;;;;;;5018345;28;20451;-82
2021/07/23 11:16:27;;;;;;;18.73;10.93;;;24.50;87.70;;;;;;5017000;28;20468;-82
2021/07/23 11:18:55;;;;;;;21.97;12.37;;;24.50;86.70;;;;;;5017576;28;20160;-82
2021/07/23 11:21:22;;;;;;;19.33;11.70;;;24.50;86.10;;;;;;5017053;28;20442;-82
2021/07/23 11:23:49;;;;;;;18.33;11.47;;;24.50;88.00;;;;;;5016395;28;20994;-82
2021/07/23 11:26:25;;;;;;;22.63;11.30;;;24.60;87.60;;;;;;5016074;28;20458;-82
2021/07/23 11:28:58;;;;;;;17.50;11.33;;;24.70;89.90;;;;;;5016848;28;20463;-81
2021/07/23 11:31:33;;;;;;;19.27;10.80;;;24.80;88.00;;;;;;5015081;28;21056;-82
2021/07/23 11:34:19;;;;;;;16.63;10.40;;;25.00;88.00;;;;;;5017256;28;20388;-82
2021/07/23 11:36:46;;;;;;;16.13;11.00;;;25.10;84.90;;;;;;5000939;28;20495;-82
2021/07/23 11:39:11;;;;;;;16.43;10.53;;;25.20;86.00;;;;;;5016241;28;20467;-82
2021/07/23 11:42:00;;;;;;;16.50;9.90;;;25.40;87.40;;;;;;5016913;28;20444;-82
2021/07/23 11:44:26;;;;;;;18.77;10.10;;;25.60;84.50;;;;;;5017924;28;20217;-82
2021/07/23 11:46:52;;;;;;;15.90;10.20;;;25.70;83.50;;;;;;5016435;28;20427;-82
2021/07/23 11:49:17;;;;;;;15.00;10.47;;;25.90;81.40;;;;;;5017568;28;20424;-82
2021/07/23 11:51:46;;;;;;;16.10;9.17;;;25.90;81.70;;;;;;5020039;28;20205;-82
2021/07/23 11:54:16;;;;;;;19.83;10.40;;;26.00;83.40;;;;;;5018947;28;20177;-82
2021/07/23 11:56:42;;;;;;;18.03;9.73;;;25.90;79.40;;;;;;5018420;28;20925;-82
2021/07/23 11:59:07;;;;;;;15.77;10.27;;;25.90;80.00;;;;;;5009517;28;20428;-81
2021/07/23 12:01:42;;;;;;;18.40;10.73;;;25.90;80.30;;;;;;5019128;28;20255;-81
2021/07/23 12:04:08;;;;;;;17.20;9.90;;;26.10;80.90;;;;;;5020517;28;20172;-82
2021/07/23 12:06:42;;;;;;;14.50;10.17;;;26.20;81.90;;;;;;5021255;28;20495;-81
2021/07/23 12:09:11;;;;;;;15.87;10.03;;;26.40;85.00;;;;;;5019770;28;20958;-82
2021/07/23 12:11:37;;;;;;;14.60;9.07;;;26.50;84.60;;;;;;5017843;28;20452;-82
2021/07/23 12:14:10;;;;;;;13.37;8.93;;;26.70;78.20;;;;;;5019131;28;20507;-82
2021/07/23 12:16:38;;;;;;;15.13;8.57;;;26.80;84.30;;;;;;5010360;28;20461;-82
2021/07/23 12:19:09;;;;;;;14.17;9.23;;;26.90;84.40;;;;;;5005531;28;21075;-82
2021/07/23 12:21:36;;;;;;;12.07;8.57;;;27.00;85.40;;;;;;5019079;28;20532;-82
2021/07/23 12:24:06;;;;;;;15.27;9.43;;;27.10;82.90;;;;;;5020225;28;20429;-82
2021/07/23 12:26:36;;;;;;;17.83;10.53;;;27.10;82.70;;;;;;5018591;28;20431;-82
2021/07/23 12:29:04;;;;;;;13.20;9.20;;;27.10;80.30;;;;;;5018089;28;20981;-82
2021/07/23 12:31:29;;;;;;;14.17;9.37;;;27.10;81.20;;;;;;5018287;28;20531;-82
2021/07/23 12:34:02;;;;;;;15.53;9.97;;;27.20;78.80;;;;;;5018983;28;20474;-82